• Join FlightAware (Why Join?)
  • Login
  • US Flag 
01:52PM EDT


 

Airport Tracker/Info


-or-


 

Live Flight TrackerFlight Track Log ✈ DAL1832 ✈ 05-Feb-2014 ✈ KMSP - KMDW

Flight Track Log - Related Links

Times and Time Zones

All times are in EST time to prevent confusion due to time zone crossing. See the DAL1832 flight status page for this flight to view local times or setup timezone preferences in your user account.

Time Position Orientation Groundspeed Altitude Reporting Facility
EST Latitude Longitude Course Direction KTS MPH feet Rate Location/Type
04:55PM 44.8833 -93.3117 154° Southeast 208 239 4,300  Level Minneapolis Center
04:56PM 44.8258 -93.3694 215° Southwest 261 300 8,400 3,240 Climbing Minneapolis Center
04:57PM 44.6788 -92.8296 153° Southeast  Level Estimated
04:57PM 44.7564 -93.3775 185° South 289 333 11,100  Level Minneapolis Center
04:58PM 44.6108 -92.6995 157° South  Level Estimated
04:58PM 44.6611 -93.2869 146° Southeast 365 420 13,700  Level Minneapolis Center
04:59PM 44.5426 -92.5697 150° Southeast  Level Estimated
04:59PM 44.5747 -93.2081 147° Southeast 376 433 16,800  Level Minneapolis Center
05:00PM 44.4743 -92.4402 154° Southeast  Level Estimated
05:00PM 44.4844 -93.1264 147° Southeast 384 442 19,000  Level Minneapolis Center
05:01PM 44.3903 -93.0422 147° Southeast 401 461 21,400 2,040 Climbing Minneapolis Center
05:03PM 44.2919 -92.9547 147° Southeast 417 480 23,300 1,980 Climbing Minneapolis Center
05:04PM 44.1661 -92.8603 152° Southeast 431 496 25,500 1,740 Climbing Minneapolis Center
05:05PM 44.0558 -92.7856 154° Southeast 440 506 26,900 720 Climbing Minneapolis Center
05:06PM 43.9458 -92.7086 153° Southeast 443 510 27,000  Climbing Minneapolis Center
05:07PM 43.8408 -92.6181 148° Southeast 448 516 27,000  Level Minneapolis Center
05:08PM 43.7483 -92.5197 142° Southeast 452 520 27,000  Level Minneapolis Center
05:09PM 43.6269 -92.3917 143° Southeast 460 529 27,000  Level Minneapolis Center
05:10PM 43.5258 -92.2889 144° Southeast 455 524 27,000  Level Minneapolis Center
05:11PM 43.4236 -92.1850 144° Southeast 458 527 27,000  Level Minneapolis Center
05:12PM 43.3206 -92.0778 143° Southeast 464 534 27,000  Level Minneapolis Center
05:13PM 43.2167 -91.9722 143° Southeast 467 537 27,000  Level Minneapolis Center
05:14PM 43.1114 -91.8683 144° Southeast 464 534 27,000  Level Chicago Center
05:15PM 43.0078 -91.7625 143° Southeast 467 537 27,000  Level Chicago Center
05:16PM 42.9031 -91.6564 143° Southeast 466 536 27,000  Level Chicago Center
05:17PM 42.7950 -91.5494 144° Southeast 464 534 27,000  Level Chicago Center
05:18PM 42.6886 -91.4414 143° Southeast 463 533 27,000  Level Chicago Center
05:19PM 42.5850 -91.3314 142° Southeast 471 542 27,000  Level Chicago Center
05:20PM 42.4575 -91.2072 144° Southeast 471 542 27,000 -300 Level Chicago Center
05:21PM 42.3511 -91.1025 144° Southeast 473 544 26,400 -780 Descending Chicago Center
05:22PM 42.2481 -91.0019 144° Southeast 460 529 25,500 -1,200 Descending Chicago Center
05:23PM 42.1481 -90.9061 145° Southeast 446 513 24,000 -780 Descending Chicago Center
05:24PM 42.0458 -90.8069 144° Southeast 454 522 24,000 -360 Level Chicago Center
05:25PM 41.9386 -90.7028 144° Southeast 475 547 23,300 -540 Descending Chicago Center
05:26PM 41.8472 -90.5733 133° Southeast 480 552 23,000 -180 Descending Chicago Center
05:27PM 41.7394 -90.4175 133° Southeast 484 557 23,000  Level Chicago Center
05:28PM 41.6464 -90.2839 133° Southeast 489 563 23,000  Level Chicago Center
05:29PM 41.5531 -90.1492 133° Southeast 491 565 23,000  Level Chicago Center
05:30PM 41.4503 -90.0531 145° Southeast 456 525 23,000 -360 Level Chicago Center
05:31PM 41.3403 -89.9944 158° South 430 495 22,300 -840 Descending Chicago Center
05:32PM 41.2383 -89.9433 159° South 399 459 21,300 -1,320 Descending Chicago Center
05:33PM 41.1469 -89.8975 159° South 353 406 19,600 -1,620 Descending Chicago Center
05:34PM 41.1103 -89.7592 109° East 354 407 18,100 -1,620 Descending Chicago Center
05:35PM 41.1222 -89.6308 83° East 349 402 16,300 -1,740 Descending Chicago Center
05:36PM 41.1344 -89.5097 82° East 334 384 14,600 -1,620 Descending Chicago Center
05:37PM 41.1458 -89.3933 83° East 320 368 13,000 -1,740 Descending Chicago Center
05:38PM 41.1567 -89.2844 82° East 303 349 11,100 -1,440 Descending Chicago Center
05:39PM 41.1681 -89.1725 82° East 295 339 10,100 -540 Descending Chicago Center
05:41PM 41.2050 -89.0783 62° Northeast 295 339 10,100  Level Chicago Center
05:42PM 41.2517 -88.9919 54° Northeast 288 331 10,100  Level Chicago Center
05:43PM 41.2908 -88.9006 60° Northeast 286 329 10,100 -60 Level Chicago Center
05:44PM 41.3392 -88.7908 60° Northeast 287 330 10,000 -480 Descending Chicago Center
05:45PM 41.3792 -88.7000 60° Northeast 286 329 9,200 -900 Descending Chicago Center
05:46PM 41.4147 -88.6022 64° Northeast 292 336 8,200 -1,080 Descending Chicago Center
05:47PM 41.4386 -88.5033 72° East 285 328 7,100 -1,080 Descending Chicago Center
05:48PM 41.4611 -88.4081 72° East 274 315 6,000 -540 Descending Chicago Center
05:49PM 41.4842 -88.3114 72° East 272 313 6,000 -540 Level Chicago Center
05:50PM 41.5069 -88.2175 72° East 268 308 5,000 -540 Descending Chicago Center
05:51PM 41.5300 -88.1244 72° East 264 304 5,000  Level Chicago Center
05:52PM 41.5519 -88.0306 73° East 262 302 5,000  Level Chicago Center
05:53PM 41.5744 -87.9369 72° East 262 302 5,000  Level Chicago Center
05:54PM 41.5811 -87.8303 85° East 244 281 5,000  Level Chicago Center
05:55PM 41.5814 -87.7558 90° East 218 251 5,000 -60 Level Chicago Center
05:56PM 41.5803 -87.6853 91° East 203 234 4,900 -480 Descending Chicago Center
05:57PM 41.5903 -87.6242 78° East 186 214 4,100 -960 Descending Chicago Center
05:58PM 41.6178 -87.5808 50° Northeast 164 189 3,000 -540 Descending Chicago Center
05:59PM 41.6536 -87.5700 13° North 159 183 3,000  Level Chicago Center
06:00PM 41.6836 -87.6106 315° West 157 181 3,000 -240 Level Chicago Center
06:01PM 41.7178 -87.6586 314° West 152 175 2,600 -600 Descending Chicago Center
06:02PM 41.7436 -87.6947 314° West 145 167 1,800 -780 Descending Chicago Center
06:03PM 41.7656 -87.7244 315° West 130 150 1,100 -420 Descending Chicago Center
06:04PM 41.7872 -87.7544 314° West 128 147 1,000 -120 Descending Chicago Center